Time;durP1;ratioP1;P1;durP2;ratioP2;P2;SDS_P1;SDS_P2;PMS_P1;PMS_P2;Temp;Humidity;BMP_temperature;BMP_pressure;BME280_temperature;BME280_humidity;BME280_pressure;Samples;Min_cycle;Max_cycle;Signal;HPM_P1;HPM_P2
2021/11/24 00:00:55;;;;;;;104.63;33.67;;;;;;;4.90;100.00;102562.38;5031595;28;20029;-67
2021/11/24 00:03:20;;;;;;;97.22;30.67;;;;;;;4.86;100.00;102566.81;5047657;28;20487;-67
2021/11/24 00:05:46;;;;;;;95.32;31.98;;;;;;;4.83;100.00;102561.00;5028323;28;20158;-67
2021/11/24 00:08:11;;;;;;;101.65;32.00;;;;;;;4.83;100.00;102561.81;5036167;28;20044;-67
2021/11/24 00:10:38;;;;;;;113.40;34.03;;;;;;;4.87;100.00;102562.50;5031731;28;20415;-67
2021/11/24 00:13:05;;;;;;;89.93;30.55;;;;;;;4.83;100.00;102556.69;5033121;28;20480;-66
2021/11/24 00:15:30;;;;;;;91.28;30.83;;;;;;;4.83;100.00;102559.25;5047019;28;20251;-67
2021/11/24 00:17:56;;;;;;;102.03;30.80;;;;;;;4.82;100.00;102544.75;5050793;28;20068;-67
2021/11/24 00:20:22;;;;;;;110.68;34.08;;;;;;;4.87;100.00;102542.75;5036298;28;20040;-67
2021/11/24 00:22:47;;;;;;;108.25;32.47;;;;;;;4.85;100.00;102548.91;5036335;28;20045;-67
2021/11/24 00:25:13;;;;;;;113.97;33.05;;;;;;;4.82;100.00;102544.75;5034391;28;20041;-67
2021/11/24 00:27:39;;;;;;;122.75;34.45;;;;;;;4.93;100.00;102543.38;5027885;28;20041;-67
2021/11/24 00:30:06;;;;;;;100.28;32.55;;;;;;;4.86;100.00;102541.13;5028330;28;20046;-67
2021/11/24 00:32:33;;;;;;;115.07;32.38;;;;;;;4.84;100.00;102540.38;5037903;28;20094;-67
2021/11/24 00:34:59;;;;;;;106.63;29.83;;;;;;;4.85;100.00;102542.00;5021678;28;20037;-67
2021/11/24 00:37:25;;;;;;;114.35;32.70;;;;;;;4.87;100.00;102549.66;5030656;28;20048;-66
2021/11/24 00:39:50;;;;;;;116.95;32.17;;;;;;;4.84;100.00;102545.50;5030309;28;20106;-66
2021/11/24 00:42:16;;;;;;;97.60;29.98;;;;;;;4.83;100.00;102543.84;5025898;28;20554;-67
2021/11/24 00:44:41;;;;;;;106.53;29.02;;;;;;;4.83;100.00;102541.25;5027192;28;20071;-67
2021/11/24 00:47:08;;;;;;;121.30;33.38;;;;;;;4.82;100.00;102542.19;5025800;28;20397;-67
2021/11/24 00:49:39;;;;;;;139.05;36.83;;;;;;;4.89;100.00;102542.69;5038914;28;20476;-67
2021/11/24 00:52:06;;;;;;;130.52;33.72;;;;;;;4.94;100.00;102542.47;5033363;28;20499;-67
2021/11/24 00:54:31;;;;;;;119.63;34.10;;;;;;;4.94;100.00;102532.19;5038221;28;20037;-67
2021/11/24 00:56:57;;;;;;;123.93;33.55;;;;;;;4.88;100.00;102538.47;5033544;28;20048;-66
2021/11/24 00:59:24;;;;;;;123.22;33.38;;;;;;;4.86;100.00;102530.84;5034069;28;20098;-66
2021/11/24 01:01:50;;;;;;;124.53;33.17;;;;;;;4.87;100.00;102527.34;5036246;28;20041;-67
2021/11/24 01:04:15;;;;;;;114.35;29.20;;;;;;;4.87;100.00;102540.19;5033653;28;20104;-67
2021/11/24 01:06:40;;;;;;;125.50;31.75;;;;;;;4.91;100.00;102532.34;5032384;28;20578;-67
2021/11/24 01:09:06;;;;;;;125.72;31.00;;;;;;;4.87;100.00;102534.22;5031091;28;20044;-66
2021/11/24 01:11:32;;;;;;;105.85;29.67;;;;;;;4.84;100.00;102532.66;5033367;28;20447;-67
2021/11/24 01:13:58;;;;;;;100.65;25.60;;;;;;;4.83;100.00;102527.59;5033756;28;20467;-67
2021/11/24 01:16:24;;;;;;;108.55;28.23;;;;;;;4.82;100.00;102526.75;5026989;28;20091;-67
2021/11/24 01:18:49;;;;;;;118.05;28.73;;;;;;;4.83;100.00;102530.16;5033774;28;20024;-67
2021/11/24 01:21:15;;;;;;;113.00;29.98;;;;;;;4.83;100.00;102525.00;5029422;28;20029;-67
2021/11/24 01:23:40;;;;;;;118.25;28.67;;;;;;;4.85;100.00;102520.63;5030734;28;20106;-67
2021/11/24 01:26:06;;;;;;;115.70;27.00;;;;;;;4.83;100.00;102525.00;5030565;28;20040;-66
2021/11/24 01:28:32;;;;;;;110.45;27.15;;;;;;;4.83;100.00;102518.13;5032481;28;20037;-67
2021/11/24 01:30:58;;;;;;;126.70;29.02;;;;;;;4.82;100.00;102519.06;5016279;28;20028;-67
2021/11/24 01:33:24;;;;;;;105.97;25.95;;;;;;;4.82;100.00;102513.06;5030381;28;20250;-67
2021/11/24 01:35:50;;;;;;;109.47;24.52;;;;;;;4.81;100.00;102517.38;5029647;28;20484;-67
2021/11/24 01:38:15;;;;;;;124.53;27.90;;;;;;;4.87;100.00;102517.06;5037189;28;20104;-67
2021/11/24 01:40:40;;;;;;;111.60;27.00;;;;;;;4.88;100.00;102511.03;5015385;28;20033;-67
2021/11/24 01:43:08;;;;;;;113.70;27.00;;;;;;;4.85;100.00;102513.75;5032331;28;20033;-67
2021/11/24 01:45:36;;;;;;;111.35;26.80;;;;;;;4.85;100.00;102510.34;5029555;28;20480;-67
2021/11/24 01:48:02;;;;;;;96.97;24.38;;;;;;;4.83;100.00;102502.72;5036078;28;20125;-67
2021/11/24 01:50:29;;;;;;;92.95;24.35;;;;;;;4.84;100.00;102504.38;5030813;28;20037;-67
2021/11/24 01:52:54;;;;;;;103.05;24.85;;;;;;;4.82;100.00;102501.06;5026872;28;20045;-67
2021/11/24 01:55:20;;;;;;;104.55;25.70;;;;;;;4.84;100.00;102500.97;5030367;28;20043;-67
2021/11/24 01:57:48;;;;;;;104.85;25.63;;;;;;;4.82;100.00;102501.06;5035199;28;20029;-67
2021/11/24 02:00:18;;;;;;;105.35;25.15;;;;;;;4.83;100.00;102505.28;5030628;28;20119;-67
2021/11/24 02:02:43;;;;;;;103.85;25.60;;;;;;;4.84;100.00;102501.81;5026515;28;20559;-67
2021/11/24 02:05:09;;;;;;;89.43;23.77;;;;;;;4.82;100.00;102495.06;5030051;28;20088;-67
2021/11/24 02:07:35;;;;;;;116.47;26.95;;;;;;;4.83;100.00;102495.00;5024642;28;20040;-67
2021/11/24 02:10:01;;;;;;;103.40;25.52;;;;;;;4.88;100.00;102495.59;5026296;28;20037;-67
2021/11/24 02:12:26;;;;;;;98.15;24.75;;;;;;;4.84;100.00;102490.69;5032010;28;20597;-67
2021/11/24 02:14:58;;;;;;;116.60;27.80;;;;;;;4.93;100.00;102474.78;5026375;28;20037;-67
2021/11/24 02:17:24;;;;;;;102.47;26.53;;;;;;;4.88;100.00;102475.03;5029264;28;20037;-66
2021/11/24 02:19:49;;;;;;;107.70;24.65;;;;;;;4.85;100.00;102472.63;5040343;28;20074;-67
2021/11/24 02:22:15;;;;;;;100.40;25.20;;;;;;;4.86;100.00;102468.31;5014344;28;20075;-67
2021/11/24 02:24:40;;;;;;;126.10;27.35;;;;;;;4.87;100.00;102464.81;5015401;28;20022;-67
2021/11/24 02:27:09;;;;;;;118.25;28.48;;;;;;;4.93;100.00;102459.38;5026755;28;20044;-67
2021/11/24 02:29:35;;;;;;;111.95;26.13;;;;;;;4.86;100.00;102460.59;5018267;28;20526;-67
2021/11/24 02:32:03;;;;;;;110.43;25.13;;;;;;;4.83;100.00;102459.00;5029614;28;20480;-67
2021/11/24 02:34:29;;;;;;;109.10;26.63;;;;;;;4.83;100.00;102459.00;5031973;28;20061;-67
2021/11/24 02:36:56;;;;;;;113.38;26.60;;;;;;;4.83;100.00;102455.63;5033008;28;20029;-67
2021/11/24 02:39:22;;;;;;;108.22;25.45;;;;;;;4.83;100.00;102453.03;5033410;28;20036;-67
2021/11/24 02:41:48;;;;;;;114.90;25.42;;;;;;;4.83;100.00;102442.75;5028022;28;20041;-67
2021/11/24 02:44:30;;;;;;;113.90;25.95;;;;;;;4.84;100.00;102444.41;5033586;28;20033;-67
2021/11/24 02:47:08;;;;;;;98.32;23.90;;;;;;;4.85;100.00;102448.66;5035680;28;20150;-67
2021/11/24 02:49:36;;;;;;;107.32;25.73;;;;;;;4.84;100.00;102445.25;5036249;28;20068;-67
2021/11/24 02:52:01;;;;;;;99.28;23.27;;;;;;;4.86;100.00;102432.34;5034763;28;20387;-67
2021/11/24 02:54:27;;;;;;;106.78;24.55;;;;;;;4.87;100.00;102429.66;5037897;28;20026;-67
2021/11/24 02:56:52;;;;;;;102.57;25.10;;;;;;;4.87;100.00;102424.53;5033297;28;20122;-67
2021/11/24 02:59:18;;;;;;;105.07;23.75;;;;;;;4.87;100.00;102421.94;5034216;28;20388;-67
2021/11/24 03:01:43;;;;;;;103.93;24.25;;;;;;;4.87;100.00;102418.56;5033027;28;20052;-67
2021/11/24 03:04:09;;;;;;;86.18;23.48;;;;;;;4.89;100.00;102421.88;5033488;28;20052;-67
2021/11/24 03:06:35;;;;;;;91.25;23.42;;;;;;;4.88;100.00;102426.19;5033721;28;20468;-67
2021/11/24 03:09:01;;;;;;;94.40;23.52;;;;;;;4.88;100.00;102415.91;5028142;28;20120;-67
2021/11/24 03:11:26;;;;;;;88.35;23.80;;;;;;;4.89;100.00;102411.59;5032000;28;20037;-67
2021/11/24 03:13:52;;;;;;;90.75;22.05;;;;;;;4.90;100.00;102405.56;5038847;28;20047;-67
2021/11/24 03:16:17;;;;;;;108.18;24.25;;;;;;;4.90;100.00;102410.69;5032218;28;20048;-67
2021/11/24 03:18:43;;;;;;;99.82;25.10;;;;;;;4.88;100.00;102400.50;5031003;28;20057;-66
2021/11/24 03:21:08;;;;;;;104.90;24.98;;;;;;;4.87;100.00;102401.38;5037983;28;20116;-67
2021/11/24 03:23:34;;;;;;;91.28;22.45;;;;;;;4.85;100.00;102400.63;5028571;28;20037;-67
2021/11/24 03:25:59;;;;;;;91.82;21.35;;;;;;;4.86;100.00;102398.91;5028610;28;20048;-67
2021/11/24 03:28:25;;;;;;;85.15;22.25;;;;;;;4.85;100.00;102398.06;5029959;28;20030;-67
2021/11/24 03:30:50;;;;;;;88.10;20.60;;;;;;;4.86;100.00;102388.63;5030577;28;20075;-67
2021/11/24 03:33:16;;;;;;;89.78;21.83;;;;;;;4.86;100.00;102393.78;5030348;28;20056;-67
2021/11/24 03:35:41;;;;;;;77.35;21.08;;;;;;;4.87;100.00;102387.72;5031805;28;20036;-67
2021/11/24 03:38:08;;;;;;;77.72;19.50;;;;;;;4.86;100.00;102380.91;5039868;28;20037;-67
2021/11/24 03:40:34;;;;;;;76.35;20.55;;;;;;;4.86;100.00;102381.75;5038782;28;20029;-67
2021/11/24 03:43:01;;;;;;;92.97;21.60;;;;;;;4.91;100.00;102378.91;5034307;28;21614;-66
2021/11/24 03:45:31;;;;;;;92.25;23.08;;;;;;;4.89;100.00;102370.47;5036088;28;20136;-67
2021/11/24 03:47:57;;;;;;;88.75;22.48;;;;;;;4.87;100.00;102372.28;5037075;28;20450;-67
2021/11/24 03:50:23;;;;;;;90.75;20.90;;;;;;;4.86;100.00;102368.06;5028790;28;20048;-67
2021/11/24 03:52:49;;;;;;;105.43;21.90;;;;;;;4.87;100.00;102367.16;5031903;28;20398;-67
2021/11/24 03:55:16;;;;;;;80.38;19.95;;;;;;;4.88;100.00;102364.50;5040347;28;20045;-67
2021/11/24 03:57:42;;;;;;;98.10;21.35;;;;;;;4.94;100.00;102353.06;5033948;28;20607;-67
2021/11/24 04:00:12;;;;;;;102.95;24.33;;;;;;;4.96;100.00;102351.22;5015885;28;20037;-67
2021/11/24 04:02:38;;;;;;;104.78;22.88;;;;;;;4.89;100.00;102347.31;5033717;28;20091;-67
2021/11/24 04:05:06;;;;;;;98.57;23.13;;;;;;;4.86;100.00;102342.38;5017850;28;20026;-67
2021/11/24 04:07:31;;;;;;;99.47;24.17;;;;;;;4.88;100.00;102348.25;5037601;28;20036;-67
2021/11/24 04:09:56;;;;;;;101.25;22.20;;;;;;;4.90;100.00;102346.44;5033092;28;20094;-67
2021/11/24 04:12:22;;;;;;;116.50;22.02;;;;;;;4.87;100.00;102344.00;5031500;28;20048;-67
2021/11/24 04:14:47;;;;;;;117.43;26.17;;;;;;;4.87;100.00;102339.69;5035303;28;20040;-66
2021/11/24 04:17:13;;;;;;;117.00;25.52;;;;;;;5.01;100.00;102333.84;5033712;28;20053;-67
2021/11/24 04:19:39;;;;;;;125.70;25.45;;;;;;;4.91;100.00;102335.22;5028690;28;20124;-67
2021/11/24 04:22:06;;;;;;;107.95;24.25;;;;;;;4.85;100.00;102327.84;5025389;28;20120;-66
2021/11/24 04:24:33;;;;;;;133.10;26.38;;;;;;;4.88;100.00;102328.50;5026490;28;20128;-67
2021/11/24 04:26:58;;;;;;;141.52;28.40;;;;;;;4.96;100.00;102328.09;5024691;28;20033;-67
2021/11/24 04:29:24;;;;;;;137.20;29.02;;;;;;;4.93;100.00;102327.44;5029356;28;20044;-67
2021/11/24 04:31:49;;;;;;;128.90;25.38;;;;;;;5.00;100.00;102324.44;5027045;28;20295;-67
2021/11/24 04:34:15;;;;;;;109.25;24.60;;;;;;;5.03;100.00;102320.91;5027092;28;20096;-67
2021/11/24 04:36:41;;;;;;;120.50;26.02;;;;;;;4.95;100.00;102311.00;5039758;28;20029;-67
2021/11/24 04:39:06;;;;;;;115.70;25.02;;;;;;;4.86;100.00;102317.47;5027113;28;20040;-66
2021/11/24 04:41:32;;;;;;;112.90;26.10;;;;;;;4.83;100.00;102314.25;5025390;28;20034;-67
2021/11/24 04:43:57;;;;;;;109.30;26.33;;;;;;;4.86;100.00;102320.06;5011222;28;20507;-67
2021/11/24 04:46:23;;;;;;;123.63;27.30;;;;;;;4.83;100.00;102321.97;5032646;28;20041;-67
2021/11/24 04:48:49;;;;;;;129.73;28.40;;;;;;;4.79;100.00;102325.59;5028736;28;20083;-67
2021/11/24 04:51:15;;;;;;;121.60;29.60;;;;;;;4.81;100.00;102327.16;5027082;28;20033;-67
2021/11/24 04:53:40;;;;;;;135.60;30.42;;;;;;;4.75;100.00;102313.84;5015084;28;20069;-66
2021/11/24 04:56:06;;;;;;;132.65;29.10;;;;;;;4.75;100.00;102311.25;5027659;28;20030;-67
2021/11/24 04:58:32;;;;;;;123.20;27.02;;;;;;;4.70;100.00;102315.81;5031856;28;20131;-67
2021/11/24 05:00:59;;;;;;;106.55;25.90;;;;;;;4.67;100.00;102312.50;5025235;28;20037;-67
2021/11/24 05:03:25;;;;;;;121.28;29.73;;;;;;;4.65;100.00;102305.75;5027588;28;20083;-67
2021/11/24 05:05:51;;;;;;;113.65;26.10;;;;;;;4.65;100.00;102311.75;5025036;28;20033;-67
2021/11/24 05:08:16;;;;;;;120.88;26.77;;;;;;;4.67;100.00;102307.34;5026514;28;20453;-67
2021/11/24 05:10:42;;;;;;;111.60;25.40;;;;;;;4.67;100.00;102309.06;5025868;28;20029;-66
2021/11/24 05:13:08;;;;;;;133.05;27.67;;;;;;;4.77;100.00;102309.44;5027627;28;20033;-67
2021/11/24 05:15:37;;;;;;;127.43;27.85;;;;;;;4.71;100.00;102308.03;5024454;28;20420;-66
2021/11/24 05:18:11;;;;;;;111.40;25.48;;;;;;;4.70;100.00;102302.94;5030035;28;20054;-66
2021/11/24 05:20:37;;;;;;;136.85;27.73;;;;;;;4.75;100.00;102306.94;5022605;28;20083;-66
2021/11/24 05:23:04;;;;;;;128.63;26.48;;;;;;;4.72;100.00;102307.09;5027651;28;20033;-67
2021/11/24 05:25:31;;;;;;;119.18;27.48;;;;;;;4.70;100.00;102311.47;5028642;28;20068;-67
2021/11/24 05:27:57;;;;;;;113.65;24.10;;;;;;;4.71;100.00;102309.72;5035507;28;20039;-66
2021/11/24 05:30:23;;;;;;;128.30;25.45;;;;;;;4.73;100.00;102298.47;5028657;28;20484;-67
2021/11/24 05:32:49;;;;;;;128.55;25.70;;;;;;;4.71;100.00;102305.44;5048898;28;20039;-67
2021/11/24 05:35:20;;;;;;;160.10;30.40;;;;;;;4.74;100.00;102300.13;5023836;28;20037;-66
2021/11/24 05:37:47;;;;;;;170.50;30.35;;;;;;;4.73;100.00;102300.19;5017544;28;20025;-67
2021/11/24 05:40:12;;;;;;;136.88;27.35;;;;;;;4.78;100.00;102300.78;5027055;28;20034;-67
2021/11/24 05:42:45;;;;;;;114.32;25.70;;;;;;;4.72;100.00;102304.53;5030136;28;20033;-67
2021/11/24 05:48:03;;;;;;;144.60;31.15;;;;;;;4.72;100.00;102293.41;5021327;28;20045;-66
2021/11/24 05:50:29;;;;;;;136.25;30.63;;;;;;;4.70;100.00;102288.34;5024656;28;20076;-66
2021/11/24 05:52:55;;;;;;;142.77;30.55;;;;;;;4.68;100.00;102292.75;5030696;28;20037;-67
2021/11/24 05:55:22;;;;;;;143.48;33.08;;;;;;;4.70;100.00;102293.50;5029212;28;20041;-67
2021/11/24 05:57:48;;;;;;;146.55;32.22;;;;;;;4.82;100.00;102289.44;5033480;28;20017;-67
2021/11/24 06:00:15;;;;;;;134.13;34.72;;;;;;;4.79;100.00;102287.06;5031679;28;20048;-67
2021/11/24 06:02:41;;;;;;;126.93;31.70;;;;;;;4.73;100.00;102295.91;5032605;28;20556;-67
2021/11/24 06:05:07;;;;;;;131.82;33.28;;;;;;;4.72;100.00;102296.00;5028847;28;20045;-67
2021/11/24 06:07:34;;;;;;;127.20;34.17;;;;;;;4.71;100.00;102290.03;5030131;28;20123;-67
2021/11/24 06:10:00;;;;;;;126.10;33.38;;;;;;;4.81;100.00;102293.75;5025386;28;20033;-67
2021/11/24 06:12:26;;;;;;;124.35;34.38;;;;;;;4.74;100.00;102282.13;5028762;28;20136;-66
2021/11/24 06:14:51;;;;;;;105.53;31.08;;;;;;;4.68;100.00;102285.88;5028776;28;20063;-67
2021/11/24 06:17:17;;;;;;;107.03;31.48;;;;;;;4.71;100.00;102273.75;5029172;28;20037;-67
2021/11/24 06:19:42;;;;;;;107.10;33.28;;;;;;;4.71;100.00;102274.59;5044986;28;20057;-66
2021/11/24 06:22:09;;;;;;;116.10;33.05;;;;;;;4.73;100.00;102272.78;5035300;28;20443;-67
2021/11/24 06:24:34;;;;;;;95.38;30.80;;;;;;;4.68;100.00;102275.59;5025594;28;20044;-67
2021/11/24 06:27:00;;;;;;;106.20;33.58;;;;;;;4.91;100.00;102276.09;5028188;28;20116;-67
2021/11/24 06:29:25;;;;;;;99.80;33.28;;;;;;;4.87;100.00;102279.75;5032318;28;20029;-66
2021/11/24 06:31:51;;;;;;;113.00;33.20;;;;;;;4.92;100.00;102275.19;5034636;28;20037;-67
2021/11/24 06:34:16;;;;;;;99.47;32.10;;;;;;;4.86;100.00;102272.97;5031853;28;20064;-67
2021/11/24 06:36:42;;;;;;;96.80;32.08;;;;;;;4.74;100.00;102266.72;5036657;28;20033;-67
2021/11/24 06:39:07;;;;;;;93.13;31.90;;;;;;;4.71;100.00;102266.91;5035607;28;20569;-67
2021/11/24 06:41:33;;;;;;;92.88;31.13;;;;;;;4.66;100.00;102266.31;5030330;28;20025;-67
2021/11/24 06:43:59;;;;;;;106.05;31.40;;;;;;;4.64;100.00;102268.13;5031878;28;20029;-67
2021/11/24 06:46:24;;;;;;;87.30;27.88;;;;;;;4.64;100.00;102263.00;5016134;28;20094;-67
2021/11/24 06:48:50;;;;;;;95.43;30.40;;;;;;;4.67;100.00;102263.66;5028357;28;20033;-67
2021/11/24 06:51:15;;;;;;;92.18;30.73;;;;;;;4.65;100.00;102265.50;5036826;28;20029;-66
2021/11/24 06:53:42;;;;;;;105.63;31.95;;;;;;;4.65;100.00;102264.63;5013847;28;20040;-66
2021/11/24 06:56:08;;;;;;;90.57;29.38;;;;;;;4.66;100.00;102258.59;5028408;28;20025;-67
2021/11/24 06:58:33;;;;;;;87.97;29.85;;;;;;;4.66;100.00;102261.16;5009813;28;20029;-67
2021/11/24 07:01:01;;;;;;;78.28;26.83;;;;;;;4.64;100.00;102257.84;5030964;28;20041;-67
2021/11/24 07:03:27;;;;;;;88.70;28.63;;;;;;;4.65;100.00;102256.94;5030571;28;20052;-67
2021/11/24 07:05:54;;;;;;;96.15;30.40;;;;;;;4.67;100.00;102249.97;5031190;28;20018;-67
2021/11/24 07:08:19;;;;;;;87.18;26.77;;;;;;;4.67;100.00;102260.25;5028926;28;20038;-67
2021/11/24 07:10:45;;;;;;;82.68;26.88;;;;;;;4.67;100.00;102260.25;5028971;28;20036;-67
2021/11/24 07:13:10;;;;;;;89.82;30.85;;;;;;;4.68;100.00;102265.31;5033156;28;20033;-67
2021/11/24 07:15:36;;;;;;;86.30;28.33;;;;;;;4.70;100.00;102261.84;5030344;28;20041;-67
2021/11/24 07:18:02;;;;;;;88.90;29.92;;;;;;;4.70;100.00;102261.84;5047047;28;20024;-67
2021/11/24 07:20:27;;;;;;;84.50;28.95;;;;;;;4.72;100.00;102260.84;5045002;28;20506;-67
2021/11/24 07:22:53;;;;;;;85.78;28.10;;;;;;;4.73;100.00;102253.94;5033378;28;20102;-67
2021/11/24 07:25:19;;;;;;;93.05;30.23;;;;;;;4.72;100.00;102260.00;5027891;28;20072;-67
2021/11/24 07:27:45;;;;;;;90.85;29.15;;;;;;;4.70;100.00;102262.66;5030823;28;20507;-67
2021/11/24 07:30:11;;;;;;;78.75;27.02;;;;;;;4.70;100.00;102261.84;5030080;28;20034;-67
2021/11/24 07:32:37;;;;;;;78.30;26.17;;;;;;;4.71;100.00;102255.78;5033568;28;20029;-67
2021/11/24 07:35:03;;;;;;;80.38;27.83;;;;;;;4.71;100.00;102261.75;5034401;28;20060;-67
2021/11/24 07:37:29;;;;;;;74.93;25.73;;;;;;;4.73;100.00;102259.09;5033638;28;20084;-67
2021/11/24 07:39:54;;;;;;;77.68;25.38;;;;;;;4.74;100.00;102256.44;5032295;28;20045;-67
2021/11/24 07:42:20;;;;;;;81.15;27.13;;;;;;;4.75;100.00;102254.72;5050752;28;20072;-66
2021/11/24 07:44:45;;;;;;;77.47;26.67;;;;;;;4.75;100.00;102255.53;5036739;28;20029;-66
2021/11/24 07:47:12;;;;;;;77.35;27.35;;;;;;;4.76;100.00;102253.78;5034228;28;20479;-67
2021/11/24 07:49:38;;;;;;;73.68;25.70;;;;;;;4.78;100.00;102254.53;5041267;28;20080;-67
2021/11/24 07:52:05;;;;;;;89.13;28.08;;;;;;;4.77;100.00;102246.00;5028260;28;20472;-67
2021/11/24 07:54:30;;;;;;;74.00;26.48;;;;;;;4.80;100.00;102243.28;5030890;28;20206;-67
2021/11/24 07:56:56;;;;;;;87.80;27.63;;;;;;;4.78;100.00;102239.94;5036683;28;20025;-67
2021/11/24 07:59:23;;;;;;;79.32;27.05;;;;;;;4.80;100.00;102235.56;5031523;28;20583;-67
2021/11/24 08:01:49;;;;;;;86.40;28.27;;;;;;;4.81;100.00;102228.69;5026240;28;20095;-67
2021/11/24 08:04:15;;;;;;;73.03;26.83;;;;;;;4.83;100.00;102232.00;5030832;28;20057;-67
2021/11/24 08:06:41;;;;;;;74.00;28.65;;;;;;;4.85;100.00;102230.97;5028892;28;20064;-67
2021/11/24 08:09:06;;;;;;;72.38;26.65;;;;;;;4.90;100.00;102237.59;5034614;28;20396;-67
2021/11/24 08:11:32;;;;;;;95.68;31.60;;;;;;;4.92;100.00;102228.09;5034153;28;20045;-67
2021/11/24 08:13:57;;;;;;;78.78;29.00;;;;;;;4.92;100.00;102216.06;5036506;28;20033;-67
2021/11/24 08:16:23;;;;;;;80.38;29.25;;;;;;;4.95;100.00;102215.06;5031842;28;20384;-67
2021/11/24 08:18:48;;;;;;;82.35;27.83;;;;;;;4.94;100.00;102218.56;5031273;28;20025;-67
2021/11/24 08:21:14;;;;;;;84.97;27.80;;;;;;;4.95;100.00;102221.03;5032115;28;20549;-67
2021/11/24 08:23:39;;;;;;;83.53;28.23;;;;;;;4.97;100.00;102211.50;5030357;28;20033;-67
2021/11/24 08:26:05;;;;;;;88.35;30.58;;;;;;;4.96;100.00;102209.84;5039931;28;20343;-67
2021/11/24 08:28:31;;;;;;;84.93;31.02;;;;;;;5.09;100.00;102210.00;5034098;28;20037;-67
2021/11/24 08:30:56;;;;;;;87.07;29.60;;;;;;;5.11;100.00;102208.16;5037788;28;20079;-67
2021/11/24 08:33:22;;;;;;;82.40;31.13;;;;;;;5.24;100.00;102206.56;5028619;28;20025;-67
2021/11/24 08:35:48;;;;;;;83.15;31.88;;;;;;;5.13;100.00;102205.50;5016349;28;20479;-67
2021/11/24 08:38:15;;;;;;;89.45;32.78;;;;;;;5.15;100.00;102212.22;5030860;28;20025;-67
2021/11/24 08:40:40;;;;;;;88.18;34.42;;;;;;;5.10;100.00;102198.78;5031647;28;20025;-68
2021/11/24 08:43:06;;;;;;;80.63;31.73;;;;;;;5.15;100.00;102196.78;5030602;28;20038;-67
2021/11/24 08:45:33;;;;;;;84.70;31.08;;;;;;;5.24;100.00;102200.59;5024338;28;20488;-67
2021/11/24 08:47:59;;;;;;;91.38;33.97;;;;;;;5.36;99.37;102202.44;5031143;28;20068;-67
2021/11/24 08:50:24;;;;;;;85.80;31.23;;;;;;;5.30;99.41;102200.22;5032187;28;20041;-66
2021/11/24 08:52:50;;;;;;;84.03;32.65;;;;;;;5.26;98.54;102199.56;5038818;28;20037;-67
2021/11/24 08:55:17;;;;;;;83.47;31.67;;;;;;;5.33;98.55;102204.34;5033376;28;20083;-67
2021/11/24 08:57:43;;;;;;;78.28;30.92;;;;;;;5.31;98.57;102196.72;5038753;28;20033;-67
2021/11/24 09:00:12;;;;;;;80.72;31.42;;;;;;;5.28;98.83;102193.53;5031291;28;20049;-67
2021/11/24 09:02:39;;;;;;;88.05;31.30;;;;;;;5.24;99.33;102191.13;5036076;28;20476;-67
2021/11/24 09:05:05;;;;;;;88.88;34.53;;;;;;;5.29;99.46;102190.03;5034300;28;20132;-67
2021/11/24 09:07:30;;;;;;;90.75;33.65;;;;;;;5.40;99.78;102183.34;5035975;28;20037;-67
2021/11/24 09:09:56;;;;;;;78.13;31.52;;;;;;;5.40;99.41;102185.09;5014949;28;20416;-67
2021/11/24 09:12:21;;;;;;;82.95;30.90;;;;;;;5.54;99.50;102182.56;5028043;28;20033;-67
2021/11/24 09:14:47;;;;;;;79.35;30.65;;;;;;;5.49;99.24;102174.28;5034428;28;20040;-67
2021/11/24 09:17:12;;;;;;;84.18;31.27;;;;;;;5.52;97.39;102174.09;5034200;28;20399;-67
2021/11/24 09:19:38;;;;;;;85.93;32.13;;;;;;;5.43;97.43;102167.75;5038637;28;20087;-67
2021/11/24 09:22:06;;;;;;;87.97;32.35;;;;;;;5.49;98.71;102174.28;5035913;28;20033;-66
2021/11/24 09:24:31;;;;;;;95.90;34.22;;;;;;;5.44;97.87;102168.56;5034329;28;20416;-67
2021/11/24 09:26:59;;;;;;;92.82;32.53;;;;;;;5.35;98.14;102166.50;5038311;28;20029;-67
2021/11/24 09:29:25;;;;;;;90.32;31.17;;;;;;;5.57;96.34;102160.97;5028433;28;20045;-67
2021/11/24 09:32:04;;;;;;;85.50;31.63;;;;;;;5.44;96.23;102156.53;5027579;28;20453;-67
2021/11/24 09:34:31;;;;;;;82.70;29.58;;;;;;;5.40;97.01;102162.75;5033080;28;20498;-67
2021/11/24 09:36:57;;;;;;;77.65;29.90;;;;;;;5.39;97.50;102165.44;5035612;28;20021;-67
2021/11/24 09:39:23;;;;;;;85.95;30.83;;;;;;;5.34;98.09;102155.41;5038084;28;20037;-67
2021/11/24 09:41:49;;;;;;;71.50;28.27;;;;;;;5.44;98.43;102153.13;5033426;28;20100;-67
2021/11/24 09:44:16;;;;;;;85.97;31.55;;;;;;;5.43;98.03;102144.59;5033643;28;20037;-67
2021/11/24 09:46:47;;;;;;;89.00;32.92;;;;;;;5.51;97.59;102146.72;5036555;28;20549;-67
2021/11/24 09:49:15;;;;;;;85.20;32.63;;;;;;;5.64;96.07;102139.91;5026797;28;20395;-67
2021/11/24 09:51:42;;;;;;;92.10;34.13;;;;;;;5.62;95.72;102134.03;5033690;28;20521;-67
2021/11/24 09:54:11;;;;;;;91.25;32.97;;;;;;;5.64;95.85;102133.94;5031601;28;20033;-67
2021/11/24 09:56:39;;;;;;;95.40;33.78;;;;;;;5.60;95.96;102140.19;5037185;28;20041;-67
2021/11/24 09:59:06;;;;;;;84.97;32.72;;;;;;;5.56;96.14;102136.16;5024994;28;20396;-67
2021/11/24 10:01:31;;;;;;;91.78;34.08;;;;;;;5.58;96.11;102139.47;5027150;28;20151;-67
2021/11/24 10:03:58;;;;;;;92.03;32.88;;;;;;;5.58;96.49;102134.31;5030400;28;20439;-67
2021/11/24 10:06:23;;;;;;;82.68;31.20;;;;;;;5.64;95.83;102132.19;5029151;28;20040;-67
2021/11/24 10:08:52;;;;;;;82.38;31.58;;;;;;;5.79;94.87;102120.16;5029462;28;20125;-67
2021/11/24 10:11:18;;;;;;;77.85;31.80;;;;;;;5.71;95.68;102116.38;5017411;28;20115;-67
2021/11/24 10:13:47;;;;;;;89.70;30.83;;;;;;;5.71;96.01;102113.81;5031814;28;20079;-67
2021/11/24 10:16:20;;;;;;;79.35;30.58;;;;;;;5.88;95.66;102108.47;5031282;28;20077;-67
2021/11/24 10:18:54;;;;;;;;;;;;;;;5.91;94.47;102108.28;5029196;28;20048;-67
2021/11/24 10:21:20;;;;;;;81.75;31.52;;;;;;;5.92;94.39;102109.13;5036250;28;19912;-66
2021/11/24 10:23:48;;;;;;;81.82;29.38;;;;;;;5.88;94.65;102098.19;5037403;28;20404;-67
2021/11/24 10:26:34;;;;;;;81.10;30.52;;;;;;;5.88;95.26;102100.75;5031434;28;20029;-67
2021/11/24 10:29:15;;;;;;;81.22;30.60;;;;;;;5.90;96.13;102095.53;5032101;28;20037;-67
2021/11/24 10:31:52;;;;;;;89.65;33.25;;;;;;;5.94;95.86;102087.50;5031883;28;20412;-67
2021/11/24 10:34:19;;;;;;;83.03;32.60;;;;;;;5.95;96.41;102084.06;5033495;28;20412;-67
2021/11/24 10:37:12;;;;;;;91.00;33.50;;;;;;;5.98;96.48;102075.31;5048930;28;20555;-67
2021/11/24 10:39:47;;;;;;;87.05;33.97;;;;;;;6.11;94.25;102065.88;5033463;28;20481;-67
2021/11/24 10:42:24;;;;;;;87.00;34.35;;;;;;;6.14;94.26;102065.72;5051538;28;20102;-66
2021/11/24 10:45:05;;;;;;;87.78;34.63;;;;;;;6.12;94.69;102066.72;5028715;28;20040;-66
2021/11/24 10:47:31;;;;;;;85.65;32.75;;;;;;;6.15;94.09;102058.81;5039977;28;20044;-67
2021/11/24 10:50:00;;;;;;;83.70;31.15;;;;;;;6.17;94.10;102056.94;5031697;28;20041;-67
2021/11/24 10:52:37;;;;;;;83.93;32.15;;;;;;;6.17;94.35;102047.47;5036052;28;20076;-67
2021/11/24 10:55:02;;;;;;;84.15;31.63;;;;;;;6.14;94.72;102045.09;5030840;28;20044;-67
2021/11/24 10:57:30;;;;;;;74.15;29.83;;;;;;;6.21;93.85;102036.03;5030177;28;20109;-67
2021/11/24 11:00:08;;;;;;;76.45;29.83;;;;;;;6.31;93.61;102025.16;5033500;28;20392;-67
2021/11/24 11:02:37;;;;;;;78.97;30.52;;;;;;;6.28;93.64;102022.78;5021378;28;20400;-67
2021/11/24 11:05:08;;;;;;;78.88;29.77;;;;;;;6.35;92.92;102024.88;5043837;28;20472;-67
2021/11/24 11:07:53;;;;;;;82.03;30.95;;;;;;;6.39;92.17;102007.47;5011449;28;20041;-67